Ash, NC

11:03 PM EST on December 24, 2014 (GMT -0500)
Henry Cannon Smith Farm | Change Station
CLOSE
Current Station
Personal Weather Station
Location: Nakina, NC
Elevation: 0 ft
Nearby Weather Stations

Elev 0 ft 34.14 °N, 78.62 °W | Updated 5 minutes ago

Overcast
Overcast
64.6 °F
Feels Like 64.6 °F
N
1.0
Wind Variable Wind from SSE
Gusts 11.0 mph

Today
High -- | Low -- °F
--% Chance of Precip.
Yesterday
High -- | Low -- °F
Precip. -- in
7:17 AM 5:10 PM
Waxing Crescent, 13% visible
Pressure 29.74 in
Visibility 10.0 miles
Clouds Overcast 11000 ft
Dew Point 63 °F
Humidity 94%
Rainfall 0.80 in
Snow Depth Not available.
UV 0 out of 12
Pollen .40 out of 12
Air Quality Not available.
Flu Activity Not available.
METAR KCPC 250355Z AUTO 20008KT 10SM OVC110 19/17 A2974 RMK AO2 T01870170

More Conditions Fewer Conditions

Pressure 29.74 in
Visibility 10.0 miles
Clouds Overcast 11000 ft
Dew Point 63 °F
Humidity 94%
Rainfall 0.80 in
Snow Depth Not available.
UV 0 out of 12
Pollen .40 out of 12
Air Quality Not available.
Flu Activity Not available.
METAR KCPC 250355Z AUTO 20008KT 10SM OVC110 19/17 A2974 RMK AO2 T01870170

More Conditions Fewer Conditions

10-Day Weather Forecast

Almanac

Astronomy

Dec. 24, 2014 Rise Set
Actual Time
Civil Twilight
Nautical Twilight
Astronomical Twilight
Moon
Length of Visible Light
Length of Day
Tomorrow will be .
, % of the Moon is Illuminated

Today's Extremes

State Highs State Lows

Community

WunderPhotos

Upload Photos

1,780,226 photos uploaded!

WunderBlogs® & News

Nearby

Air Quality

  Air Quality AQ Index Pollutant
Not available.

Snow Depth

Station Depth Elevation

Earthquake Activity

City Distance Mag. Time & Date
Minimum magnitude displayed is 2.5.

Coastal Water Temperatures

Place Temperature

Nearby Weather Stations